sensor_id;sensor_type;location;lat;lon;timestamp;P1;durP1;ratioP1;P2;durP2;ratioP2
55633;SDS011;41504;53.162;6.788;2023-12-04T00:02:08;28.83;;;17.15;;
55633;SDS011;41504;53.162;6.788;2023-12-04T00:04:37;31.00;;;16.98;;
55633;SDS011;41504;53.162;6.788;2023-12-04T00:07:10;31.65;;;17.17;;
55633;SDS011;41504;53.162;6.788;2023-12-04T00:09:39;30.13;;;16.52;;
55633;SDS011;41504;53.162;6.788;2023-12-04T00:12:24;30.63;;;16.50;;
55633;SDS011;41504;53.162;6.788;2023-12-04T00:18:06;29.58;;;17.05;;
55633;SDS011;41504;53.162;6.788;2023-12-04T00:20:54;31.67;;;16.70;;
55633;SDS011;41504;53.162;6.788;2023-12-04T00:23:49;28.85;;;16.30;;
55633;SDS011;41504;53.162;6.788;2023-12-04T00:26:25;30.33;;;16.38;;
55633;SDS011;41504;53.162;6.788;2023-12-04T00:29:24;29.35;;;15.77;;
55633;SDS011;41504;53.162;6.788;2023-12-04T00:31:56;28.73;;;16.05;;
55633;SDS011;41504;53.162;6.788;2023-12-04T00:34:45;26.05;;;14.98;;
55633;SDS011;41504;53.162;6.788;2023-12-04T00:41:05;28.80;;;16.17;;
55633;SDS011;41504;53.162;6.788;2023-12-04T00:43:54;27.17;;;15.23;;
55633;SDS011;41504;53.162;6.788;2023-12-04T00:46:38;28.17;;;15.10;;
55633;SDS011;41504;53.162;6.788;2023-12-04T00:49:30;28.42;;;15.35;;
55633;SDS011;41504;53.162;6.788;2023-12-04T00:52:24;28.17;;;15.32;;
55633;SDS011;41504;53.162;6.788;2023-12-04T00:54:55;28.83;;;15.82;;
55633;SDS011;41504;53.162;6.788;2023-12-04T01:03:33;27.98;;;16.13;;
55633;SDS011;41504;53.162;6.788;2023-12-04T01:06:02;25.90;;;14.90;;
55633;SDS011;41504;53.162;6.788;2023-12-04T01:09:04;28.27;;;14.35;;
55633;SDS011;41504;53.162;6.788;2023-12-04T01:11:35;26.77;;;15.07;;
55633;SDS011;41504;53.162;6.788;2023-12-04T01:14:18;29.08;;;15.43;;
55633;SDS011;41504;53.162;6.788;2023-12-04T01:20:17;27.67;;;15.10;;
55633;SDS011;41504;53.162;6.788;2023-12-04T01:22:54;26.13;;;14.18;;
55633;SDS011;41504;53.162;6.788;2023-12-04T01:26:02;27.52;;;15.27;;
55633;SDS011;41504;53.162;6.788;2023-12-04T01:28:54;30.60;;;15.48;;
55633;SDS011;41504;53.162;6.788;2023-12-04T01:31:38;25.63;;;15.02;;
55633;SDS011;41504;53.162;6.788;2023-12-04T01:34:07;24.98;;;15.15;;
55633;SDS011;41504;53.162;6.788;2023-12-04T01:36:42;24.15;;;14.75;;
55633;SDS011;41504;53.162;6.788;2023-12-04T01:39:27;26.65;;;15.23;;
55633;SDS011;41504;53.162;6.788;2023-12-04T01:42:02;27.70;;;15.23;;
55633;SDS011;41504;53.162;6.788;2023-12-04T01:44:44;27.90;;;15.77;;
55633;SDS011;41504;53.162;6.788;2023-12-04T01:47:19;27.95;;;15.05;;
55633;SDS011;41504;53.162;6.788;2023-12-04T01:50:13;27.23;;;15.23;;
55633;SDS011;41504;53.162;6.788;2023-12-04T01:52:47;25.02;;;15.05;;
55633;SDS011;41504;53.162;6.788;2023-12-04T01:55:35;29.13;;;15.85;;
55633;SDS011;41504;53.162;6.788;2023-12-04T01:58:31;27.40;;;16.35;;
55633;SDS011;41504;53.162;6.788;2023-12-04T02:00:58;25.63;;;14.32;;
55633;SDS011;41504;53.162;6.788;2023-12-04T02:03:24;25.80;;;14.70;;
55633;SDS011;41504;53.162;6.788;2023-12-04T02:06:28;27.98;;;15.55;;
55633;SDS011;41504;53.162;6.788;2023-12-04T02:09:53;28.65;;;15.88;;
55633;SDS011;41504;53.162;6.788;2023-12-04T02:11:56;26.20;;;15.35;;
55633;SDS011;41504;53.162;6.788;2023-12-04T02:14:37;25.30;;;15.50;;
55633;SDS011;41504;53.162;6.788;2023-12-04T02:17:15;27.83;;;15.27;;
55633;SDS011;41504;53.162;6.788;2023-12-04T02:20:00;26.40;;;14.82;;
55633;SDS011;41504;53.162;6.788;2023-12-04T02:22:46;28.23;;;16.23;;
55633;SDS011;41504;53.162;6.788;2023-12-04T02:25:15;26.50;;;15.75;;
55633;SDS011;41504;53.162;6.788;2023-12-04T02:27:49;28.85;;;16.48;;
55633;SDS011;41504;53.162;6.788;2023-12-04T02:30:22;28.15;;;15.60;;
55633;SDS011;41504;53.162;6.788;2023-12-04T02:33:26;28.33;;;15.25;;
55633;SDS011;41504;53.162;6.788;2023-12-04T02:36:00;26.98;;;15.23;;
55633;SDS011;41504;53.162;6.788;2023-12-04T02:38:54;27.83;;;14.73;;
55633;SDS011;41504;53.162;6.788;2023-12-04T02:41:43;25.60;;;14.98;;
55633;SDS011;41504;53.162;6.788;2023-12-04T02:44:21;26.08;;;14.63;;
55633;SDS011;41504;53.162;6.788;2023-12-04T02:53:20;27.92;;;15.57;;
55633;SDS011;41504;53.162;6.788;2023-12-04T02:56:08;27.05;;;15.50;;
55633;SDS011;41504;53.162;6.788;2023-12-04T02:58:53;26.27;;;15.18;;
55633;SDS011;41504;53.162;6.788;2023-12-04T03:01:39;25.25;;;14.98;;
55633;SDS011;41504;53.162;6.788;2023-12-04T03:04:05;29.20;;;16.23;;
55633;SDS011;41504;53.162;6.788;2023-12-04T03:06:31;25.95;;;14.57;;
55633;SDS011;41504;53.162;6.788;2023-12-04T03:08:57;24.55;;;14.90;;
55633;SDS011;41504;53.162;6.788;2023-12-04T03:11:24;26.38;;;15.30;;
55633;SDS011;41504;53.162;6.788;2023-12-04T03:13:50;27.40;;;16.00;;
55633;SDS011;41504;53.162;6.788;2023-12-04T03:16:18;25.80;;;15.02;;
55633;SDS011;41504;53.162;6.788;2023-12-04T03:18:44;25.73;;;14.52;;
55633;SDS011;41504;53.162;6.788;2023-12-04T03:21:10;26.45;;;16.17;;
55633;SDS011;41504;53.162;6.788;2023-12-04T03:23:36;26.60;;;15.77;;
55633;SDS011;41504;53.162;6.788;2023-12-04T03:26:02;27.42;;;15.27;;
55633;SDS011;41504;53.162;6.788;2023-12-04T03:28:28;28.77;;;16.50;;
55633;SDS011;41504;53.162;6.788;2023-12-04T03:30:54;24.63;;;15.23;;
55633;SDS011;41504;53.162;6.788;2023-12-04T03:33:19;27.58;;;16.27;;
55633;SDS011;41504;53.162;6.788;2023-12-04T03:35:45;28.30;;;16.27;;
55633;SDS011;41504;53.162;6.788;2023-12-04T03:38:12;27.00;;;15.57;;
55633;SDS011;41504;53.162;6.788;2023-12-04T03:40:37;26.55;;;15.75;;
55633;SDS011;41504;53.162;6.788;2023-12-04T03:43:03;26.35;;;15.10;;
55633;SDS011;41504;53.162;6.788;2023-12-04T03:45:29;27.13;;;15.52;;
55633;SDS011;41504;53.162;6.788;2023-12-04T03:47:55;26.17;;;15.30;;
55633;SDS011;41504;53.162;6.788;2023-12-04T03:50:20;27.90;;;16.08;;
55633;SDS011;41504;53.162;6.788;2023-12-04T03:52:46;24.85;;;14.93;;
55633;SDS011;41504;53.162;6.788;2023-12-04T03:55:12;25.58;;;14.60;;
55633;SDS011;41504;53.162;6.788;2023-12-04T03:57:38;25.00;;;14.70;;
55633;SDS011;41504;53.162;6.788;2023-12-04T04:00:04;25.70;;;15.00;;
55633;SDS011;41504;53.162;6.788;2023-12-04T04:02:30;25.25;;;15.48;;
55633;SDS011;41504;53.162;6.788;2023-12-04T04:04:56;26.55;;;14.80;;
55633;SDS011;41504;53.162;6.788;2023-12-04T04:07:22;25.95;;;15.35;;
55633;SDS011;41504;53.162;6.788;2023-12-04T04:09:47;23.85;;;14.57;;
55633;SDS011;41504;53.162;6.788;2023-12-04T04:12:13;26.05;;;14.57;;
55633;SDS011;41504;53.162;6.788;2023-12-04T04:14:39;25.95;;;16.20;;
55633;SDS011;41504;53.162;6.788;2023-12-04T04:17:04;26.05;;;15.88;;
55633;SDS011;41504;53.162;6.788;2023-12-04T04:19:30;25.92;;;14.80;;
55633;SDS011;41504;53.162;6.788;2023-12-04T04:21:56;25.05;;;14.98;;
55633;SDS011;41504;53.162;6.788;2023-12-04T04:24:22;26.73;;;15.32;;
55633;SDS011;41504;53.162;6.788;2023-12-04T04:26:47;24.98;;;15.48;;
55633;SDS011;41504;53.162;6.788;2023-12-04T04:29:13;26.77;;;15.02;;
55633;SDS011;41504;53.162;6.788;2023-12-04T04:31:39;24.77;;;14.77;;
55633;SDS011;41504;53.162;6.788;2023-12-04T04:34:04;24.88;;;14.90;;
55633;SDS011;41504;53.162;6.788;2023-12-04T04:36:33;25.23;;;14.73;;
55633;SDS011;41504;53.162;6.788;2023-12-04T04:39:00;28.10;;;15.77;;
55633;SDS011;41504;53.162;6.788;2023-12-04T04:41:26;27.70;;;16.35;;
55633;SDS011;41504;53.162;6.788;2023-12-04T04:43:52;27.55;;;15.02;;
55633;SDS011;41504;53.162;6.788;2023-12-04T04:46:18;24.58;;;14.65;;
55633;SDS011;41504;53.162;6.788;2023-12-04T04:48:44;24.30;;;14.52;;
55633;SDS011;41504;53.162;6.788;2023-12-04T04:51:10;25.13;;;15.57;;
55633;SDS011;41504;53.162;6.788;2023-12-04T04:53:35;26.83;;;15.95;;
55633;SDS011;41504;53.162;6.788;2023-12-04T04:56:01;28.95;;;15.30;;
55633;SDS011;41504;53.162;6.788;2023-12-04T04:58:27;26.05;;;15.15;;
55633;SDS011;41504;53.162;6.788;2023-12-04T05:00:53;27.02;;;15.40;;
55633;SDS011;41504;53.162;6.788;2023-12-04T05:03:18;25.92;;;15.30;;
55633;SDS011;41504;53.162;6.788;2023-12-04T05:05:44;22.65;;;14.52;;
55633;SDS011;41504;53.162;6.788;2023-12-04T05:08:10;26.30;;;15.23;;
55633;SDS011;41504;53.162;6.788;2023-12-04T05:10:37;27.27;;;15.32;;
55633;SDS011;41504;53.162;6.788;2023-12-04T05:13:04;25.08;;;14.95;;
55633;SDS011;41504;53.162;6.788;2023-12-04T05:15:30;25.27;;;14.45;;
55633;SDS011;41504;53.162;6.788;2023-12-04T05:17:55;25.77;;;15.65;;
55633;SDS011;41504;53.162;6.788;2023-12-04T05:20:21;25.75;;;14.93;;
55633;SDS011;41504;53.162;6.788;2023-12-04T05:22:47;27.75;;;15.93;;
55633;SDS011;41504;53.162;6.788;2023-12-04T05:25:14;27.10;;;14.50;;
55633;SDS011;41504;53.162;6.788;2023-12-04T05:27:39;27.60;;;15.75;;
55633;SDS011;41504;53.162;6.788;2023-12-04T05:30:05;26.80;;;15.63;;
55633;SDS011;41504;53.162;6.788;2023-12-04T05:32:31;27.35;;;15.55;;
55633;SDS011;41504;53.162;6.788;2023-12-04T05:34:57;28.17;;;16.27;;
55633;SDS011;41504;53.162;6.788;2023-12-04T05:37:23;29.90;;;16.35;;
55633;SDS011;41504;53.162;6.788;2023-12-04T05:39:48;27.92;;;16.13;;
55633;SDS011;41504;53.162;6.788;2023-12-04T05:42:14;26.75;;;16.15;;
55633;SDS011;41504;53.162;6.788;2023-12-04T05:44:40;29.90;;;16.63;;
55633;SDS011;41504;53.162;6.788;2023-12-04T05:47:06;25.13;;;15.27;;
55633;SDS011;41504;53.162;6.788;2023-12-04T05:49:33;26.95;;;15.23;;
55633;SDS011;41504;53.162;6.788;2023-12-04T05:51:59;28.15;;;15.85;;
55633;SDS011;41504;53.162;6.788;2023-12-04T05:54:25;27.55;;;15.50;;
55633;SDS011;41504;53.162;6.788;2023-12-04T05:56:51;24.48;;;14.15;;
55633;SDS011;41504;53.162;6.788;2023-12-04T05:59:17;28.50;;;16.23;;
55633;SDS011;41504;53.162;6.788;2023-12-04T06:01:43;26.30;;;15.02;;
55633;SDS011;41504;53.162;6.788;2023-12-04T06:04:09;26.02;;;15.88;;
55633;SDS011;41504;53.162;6.788;2023-12-04T06:06:34;28.73;;;16.08;;
55633;SDS011;41504;53.162;6.788;2023-12-04T06:09:00;26.98;;;15.05;;
55633;SDS011;41504;53.162;6.788;2023-12-04T06:11:26;25.70;;;15.02;;
55633;SDS011;41504;53.162;6.788;2023-12-04T06:13:52;27.73;;;16.70;;
55633;SDS011;41504;53.162;6.788;2023-12-04T06:16:17;28.85;;;14.85;;
55633;SDS011;41504;53.162;6.788;2023-12-04T06:18:43;26.83;;;14.90;;
55633;SDS011;41504;53.162;6.788;2023-12-04T06:21:09;28.80;;;15.48;;
55633;SDS011;41504;53.162;6.788;2023-12-04T06:23:34;26.48;;;15.13;;
55633;SDS011;41504;53.162;6.788;2023-12-04T06:26:00;26.63;;;14.73;;
55633;SDS011;41504;53.162;6.788;2023-12-04T06:28:26;24.23;;;14.27;;
55633;SDS011;41504;53.162;6.788;2023-12-04T06:30:52;24.55;;;14.40;;
55633;SDS011;41504;53.162;6.788;2023-12-04T06:33:18;26.50;;;15.02;;
55633;SDS011;41504;53.162;6.788;2023-12-04T06:35:45;25.85;;;15.23;;
55633;SDS011;41504;53.162;6.788;2023-12-04T06:38:12;26.75;;;14.55;;
55633;SDS011;41504;53.162;6.788;2023-12-04T06:40:43;26.92;;;14.80;;
55633;SDS011;41504;53.162;6.788;2023-12-04T06:43:09;28.38;;;15.18;;
55633;SDS011;41504;53.162;6.788;2023-12-04T06:45:35;25.60;;;14.73;;
55633;SDS011;41504;53.162;6.788;2023-12-04T06:48:01;27.23;;;14.48;;
55633;SDS011;41504;53.162;6.788;2023-12-04T06:50:27;25.90;;;14.63;;
55633;SDS011;41504;53.162;6.788;2023-12-04T06:52:53;23.95;;;14.13;;
55633;SDS011;41504;53.162;6.788;2023-12-04T06:55:18;27.08;;;14.57;;
55633;SDS011;41504;53.162;6.788;2023-12-04T06:57:44;26.60;;;14.70;;
55633;SDS011;41504;53.162;6.788;2023-12-04T07:00:10;25.55;;;14.65;;
55633;SDS011;41504;53.162;6.788;2023-12-04T07:02:40;25.45;;;14.90;;
55633;SDS011;41504;53.162;6.788;2023-12-04T07:05:05;25.73;;;14.23;;
55633;SDS011;41504;53.162;6.788;2023-12-04T07:07:31;25.55;;;14.40;;
55633;SDS011;41504;53.162;6.788;2023-12-04T07:09:58;24.23;;;14.45;;
55633;SDS011;41504;53.162;6.788;2023-12-04T07:12:23;24.55;;;14.07;;
55633;SDS011;41504;53.162;6.788;2023-12-04T07:14:49;27.50;;;14.57;;
55633;SDS011;41504;53.162;6.788;2023-12-04T07:17:15;22.98;;;13.75;;
55633;SDS011;41504;53.162;6.788;2023-12-04T07:19:41;24.58;;;14.55;;
55633;SDS011;41504;53.162;6.788;2023-12-04T07:22:07;25.20;;;14.00;;
55633;SDS011;41504;53.162;6.788;2023-12-04T07:24:33;22.10;;;13.05;;
55633;SDS011;41504;53.162;6.788;2023-12-04T07:26:58;23.48;;;13.40;;
55633;SDS011;41504;53.162;6.788;2023-12-04T07:29:24;22.33;;;13.30;;
55633;SDS011;41504;53.162;6.788;2023-12-04T07:31:50;23.60;;;13.57;;
55633;SDS011;41504;53.162;6.788;2023-12-04T07:34:16;23.08;;;12.90;;
55633;SDS011;41504;53.162;6.788;2023-12-04T07:36:42;23.25;;;13.30;;
55633;SDS011;41504;53.162;6.788;2023-12-04T07:39:09;23.35;;;13.15;;
55633;SDS011;41504;53.162;6.788;2023-12-04T07:41:35;23.38;;;13.98;;
55633;SDS011;41504;53.162;6.788;2023-12-04T07:44:02;22.77;;;12.90;;
55633;SDS011;41504;53.162;6.788;2023-12-04T07:46:28;23.80;;;13.18;;
55633;SDS011;41504;53.162;6.788;2023-12-04T07:48:54;21.98;;;12.35;;
55633;SDS011;41504;53.162;6.788;2023-12-04T07:51:20;22.13;;;12.50;;
55633;SDS011;41504;53.162;6.788;2023-12-04T07:53:46;22.45;;;12.68;;
55633;SDS011;41504;53.162;6.788;2023-12-04T07:56:12;23.55;;;12.52;;
55633;SDS011;41504;53.162;6.788;2023-12-04T07:58:38;20.88;;;13.00;;
55633;SDS011;41504;53.162;6.788;2023-12-04T08:01:05;22.55;;;12.50;;
55633;SDS011;41504;53.162;6.788;2023-12-04T08:03:31;23.60;;;13.50;;
55633;SDS011;41504;53.162;6.788;2023-12-04T08:05:57;22.10;;;12.88;;
55633;SDS011;41504;53.162;6.788;2023-12-04T08:08:25;22.13;;;12.63;;
55633;SDS011;41504;53.162;6.788;2023-12-04T08:10:51;19.52;;;11.48;;
55633;SDS011;41504;53.162;6.788;2023-12-04T08:13:17;20.88;;;11.93;;
55633;SDS011;41504;53.162;6.788;2023-12-04T08:15:43;22.05;;;12.30;;
55633;SDS011;41504;53.162;6.788;2023-12-04T08:18:09;21.20;;;12.48;;
55633;SDS011;41504;53.162;6.788;2023-12-04T08:20:35;19.70;;;11.75;;
55633;SDS011;41504;53.162;6.788;2023-12-04T08:23:01;20.80;;;11.90;;
55633;SDS011;41504;53.162;6.788;2023-12-04T08:25:26;20.23;;;10.95;;
55633;SDS011;41504;53.162;6.788;2023-12-04T08:27:52;19.13;;;11.55;;
55633;SDS011;41504;53.162;6.788;2023-12-04T08:30:18;21.00;;;11.77;;
55633;SDS011;41504;53.162;6.788;2023-12-04T08:32:43;18.25;;;10.73;;
55633;SDS011;41504;53.162;6.788;2023-12-04T08:35:09;17.17;;;10.93;;
55633;SDS011;41504;53.162;6.788;2023-12-04T08:37:35;18.83;;;11.27;;
55633;SDS011;41504;53.162;6.788;2023-12-04T08:40:01;20.60;;;11.48;;
55633;SDS011;41504;53.162;6.788;2023-12-04T08:42:28;20.42;;;11.23;;
55633;SDS011;41504;53.162;6.788;2023-12-04T08:44:54;20.52;;;11.40;;
55633;SDS011;41504;53.162;6.788;2023-12-04T08:47:20;17.15;;;10.13;;
55633;SDS011;41504;53.162;6.788;2023-12-04T08:49:45;18.08;;;10.23;;
55633;SDS011;41504;53.162;6.788;2023-12-04T08:52:12;19.27;;;11.00;;
55633;SDS011;41504;53.162;6.788;2023-12-04T08:54:40;15.48;;;9.70;;
55633;SDS011;41504;53.162;6.788;2023-12-04T08:57:07;18.63;;;10.25;;
55633;SDS011;41504;53.162;6.788;2023-12-04T08:59:33;17.77;;;10.55;;
55633;SDS011;41504;53.162;6.788;2023-12-04T09:01:59;16.73;;;9.98;;
55633;SDS011;41504;53.162;6.788;2023-12-04T09:04:28;17.83;;;10.23;;
55633;SDS011;41504;53.162;6.788;2023-12-04T09:06:55;18.77;;;10.98;;
55633;SDS011;41504;53.162;6.788;2023-12-04T09:09:21;15.68;;;9.50;;
55633;SDS011;41504;53.162;6.788;2023-12-04T09:11:46;17.02;;;10.00;;
55633;SDS011;41504;53.162;6.788;2023-12-04T09:14:12;19.08;;;10.57;;
55633;SDS011;41504;53.162;6.788;2023-12-04T09:16:38;17.40;;;9.85;;
55633;SDS011;41504;53.162;6.788;2023-12-04T09:19:04;17.63;;;10.32;;
55633;SDS011;41504;53.162;6.788;2023-12-04T09:21:29;15.73;;;9.25;;
55633;SDS011;41504;53.162;6.788;2023-12-04T09:23:55;16.13;;;9.95;;
55633;SDS011;41504;53.162;6.788;2023-12-04T09:26:21;18.25;;;9.68;;
55633;SDS011;41504;53.162;6.788;2023-12-04T09:28:46;18.50;;;10.15;;
55633;SDS011;41504;53.162;6.788;2023-12-04T09:31:12;17.88;;;9.63;;
55633;SDS011;41504;53.162;6.788;2023-12-04T09:33:38;15.50;;;9.98;;
55633;SDS011;41504;53.162;6.788;2023-12-04T09:36:04;18.60;;;10.48;;
55633;SDS011;41504;53.162;6.788;2023-12-04T09:38:30;14.88;;;8.93;;
55633;SDS011;41504;53.162;6.788;2023-12-04T09:40:57;15.57;;;9.13;;
55633;SDS011;41504;53.162;6.788;2023-12-04T09:43:26;15.98;;;9.43;;
55633;SDS011;41504;53.162;6.788;2023-12-04T09:46:02;16.17;;;9.65;;
55633;SDS011;41504;53.162;6.788;2023-12-04T09:48:28;16.08;;;9.35;;
55633;SDS011;41504;53.162;6.788;2023-12-04T09:50:56;16.05;;;9.35;;
55633;SDS011;41504;53.162;6.788;2023-12-04T09:53:22;16.85;;;10.05;;
55633;SDS011;41504;53.162;6.788;2023-12-04T09:55:49;15.50;;;9.63;;
55633;SDS011;41504;53.162;6.788;2023-12-04T09:58:16;17.80;;;10.25;;
55633;SDS011;41504;53.162;6.788;2023-12-04T10:00:44;15.93;;;9.05;;
55633;SDS011;41504;53.162;6.788;2023-12-04T10:03:12;17.60;;;9.80;;
55633;SDS011;41504;53.162;6.788;2023-12-04T10:05:41;16.73;;;8.95;;
55633;SDS011;41504;53.162;6.788;2023-12-04T10:08:09;18.75;;;9.73;;
55633;SDS011;41504;53.162;6.788;2023-12-04T10:10:35;15.75;;;9.57;;
55633;SDS011;41504;53.162;6.788;2023-12-04T10:13:00;16.10;;;9.10;;
55633;SDS011;41504;53.162;6.788;2023-12-04T10:15:26;15.15;;;9.40;;
55633;SDS011;41504;53.162;6.788;2023-12-04T10:17:52;16.60;;;9.68;;
55633;SDS011;41504;53.162;6.788;2023-12-04T10:20:19;16.05;;;9.68;;
55633;SDS011;41504;53.162;6.788;2023-12-04T10:25:19;14.77;;;9.00;;
55633;SDS011;41504;53.162;6.788;2023-12-04T10:27:46;17.50;;;10.43;;
55633;SDS011;41504;53.162;6.788;2023-12-04T10:30:28;14.73;;;8.93;;
55633;SDS011;41504;53.162;6.788;2023-12-04T10:33:03;15.75;;;9.25;;
55633;SDS011;41504;53.162;6.788;2023-12-04T10:35:31;15.20;;;8.60;;
55633;SDS011;41504;53.162;6.788;2023-12-04T10:37:57;14.90;;;8.88;;
55633;SDS011;41504;53.162;6.788;2023-12-04T10:40:29;17.33;;;9.68;;
55633;SDS011;41504;53.162;6.788;2023-12-04T10:45:37;18.42;;;10.18;;
55633;SDS011;41504;53.162;6.788;2023-12-04T10:48:05;16.38;;;10.05;;
55633;SDS011;41504;53.162;6.788;2023-12-04T10:50:34;19.23;;;10.10;;
55633;SDS011;41504;53.162;6.788;2023-12-04T10:53:03;18.65;;;9.93;;
55633;SDS011;41504;53.162;6.788;2023-12-04T10:55:32;15.77;;;9.73;;
55633;SDS011;41504;53.162;6.788;2023-12-04T10:57:59;17.13;;;9.82;;
55633;SDS011;41504;53.162;6.788;2023-12-04T11:00:32;15.80;;;9.85;;
55633;SDS011;41504;53.162;6.788;2023-12-04T11:03:09;16.40;;;9.60;;
55633;SDS011;41504;53.162;6.788;2023-12-04T11:05:40;16.85;;;9.38;;
55633;SDS011;41504;53.162;6.788;2023-12-04T11:08:07;15.13;;;9.30;;
55633;SDS011;41504;53.162;6.788;2023-12-04T11:10:57;16.77;;;10.57;;
55633;SDS011;41504;53.162;6.788;2023-12-04T11:13:37;17.58;;;9.90;;
55633;SDS011;41504;53.162;6.788;2023-12-04T11:16:12;16.05;;;9.93;;
55633;SDS011;41504;53.162;6.788;2023-12-04T11:18:53;18.23;;;10.15;;
55633;SDS011;41504;53.162;6.788;2023-12-04T11:21:24;15.20;;;9.05;;
55633;SDS011;41504;53.162;6.788;2023-12-04T11:23:50;14.90;;;9.13;;
55633;SDS011;41504;53.162;6.788;2023-12-04T11:26:16;16.00;;;9.02;;
55633;SDS011;41504;53.162;6.788;2023-12-04T11:28:43;14.65;;;9.32;;
55633;SDS011;41504;53.162;6.788;2023-12-04T11:31:09;15.20;;;9.75;;
55633;SDS011;41504;53.162;6.788;2023-12-04T11:33:36;16.30;;;9.82;;
55633;SDS011;41504;53.162;6.788;2023-12-04T11:36:09;15.07;;;9.60;;
55633;SDS011;41504;53.162;6.788;2023-12-04T11:38:44;15.30;;;9.10;;
55633;SDS011;41504;53.162;6.788;2023-12-04T11:41:14;15.13;;;8.93;;
55633;SDS011;41504;53.162;6.788;2023-12-04T11:43:42;13.63;;;8.98;;
55633;SDS011;41504;53.162;6.788;2023-12-04T11:46:08;14.32;;;8.70;;
55633;SDS011;41504;53.162;6.788;2023-12-04T11:48:37;15.05;;;9.35;;
55633;SDS011;41504;53.162;6.788;2023-12-04T11:51:05;14.65;;;9.18;;
55633;SDS011;41504;53.162;6.788;2023-12-04T11:53:32;13.95;;;8.80;;
55633;SDS011;41504;53.162;6.788;2023-12-04T11:56:08;13.10;;;8.48;;
55633;SDS011;41504;53.162;6.788;2023-12-04T11:58:41;14.55;;;8.85;;
55633;SDS011;41504;53.162;6.788;2023-12-04T12:01:08;12.98;;;8.65;;
55633;SDS011;41504;53.162;6.788;2023-12-04T12:03:34;14.15;;;8.98;;
55633;SDS011;41504;53.162;6.788;2023-12-04T12:06:00;15.18;;;9.40;;
55633;SDS011;41504;53.162;6.788;2023-12-04T12:08:26;15.98;;;9.63;;
55633;SDS011;41504;53.162;6.788;2023-12-04T12:10:54;14.35;;;8.75;;
55633;SDS011;41504;53.162;6.788;2023-12-04T12:13:20;14.95;;;8.85;;
55633;SDS011;41504;53.162;6.788;2023-12-04T12:15:47;13.70;;;8.93;;
55633;SDS011;41504;53.162;6.788;2023-12-04T12:18:19;13.15;;;8.63;;
55633;SDS011;41504;53.162;6.788;2023-12-04T12:20:48;14.57;;;8.50;;
55633;SDS011;41504;53.162;6.788;2023-12-04T12:23:13;14.10;;;8.73;;
55633;SDS011;41504;53.162;6.788;2023-12-04T12:25:39;13.80;;;8.45;;
55633;SDS011;41504;53.162;6.788;2023-12-04T12:28:05;15.55;;;10.50;;
55633;SDS011;41504;53.162;6.788;2023-12-04T12:30:31;16.25;;;9.90;;
55633;SDS011;41504;53.162;6.788;2023-12-04T12:32:57;18.10;;;11.70;;
55633;SDS011;41504;53.162;6.788;2023-12-04T12:35:23;16.95;;;10.65;;
55633;SDS011;41504;53.162;6.788;2023-12-04T12:37:50;15.07;;;9.48;;
55633;SDS011;41504;53.162;6.788;2023-12-04T12:40:19;16.30;;;9.73;;
55633;SDS011;41504;53.162;6.788;2023-12-04T12:42:48;15.23;;;9.52;;
55633;SDS011;41504;53.162;6.788;2023-12-04T12:45:16;15.75;;;9.05;;
55633;SDS011;41504;53.162;6.788;2023-12-04T12:47:42;15.63;;;9.25;;
55633;SDS011;41504;53.162;6.788;2023-12-04T12:50:09;15.82;;;9.18;;
55633;SDS011;41504;53.162;6.788;2023-12-04T12:52:36;16.60;;;9.10;;
55633;SDS011;41504;53.162;6.788;2023-12-04T12:55:02;16.08;;;9.15;;
55633;SDS011;41504;53.162;6.788;2023-12-04T12:57:29;14.25;;;9.07;;
55633;SDS011;41504;53.162;6.788;2023-12-04T12:59:55;14.23;;;9.18;;
55633;SDS011;41504;53.162;6.788;2023-12-04T13:02:21;16.15;;;9.23;;
55633;SDS011;41504;53.162;6.788;2023-12-04T13:04:47;15.63;;;9.07;;
55633;SDS011;41504;53.162;6.788;2023-12-04T13:07:13;15.23;;;9.93;;
55633;SDS011;41504;53.162;6.788;2023-12-04T13:09:39;14.82;;;9.48;;
55633;SDS011;41504;53.162;6.788;2023-12-04T13:12:05;13.98;;;9.50;;
55633;SDS011;41504;53.162;6.788;2023-12-04T13:14:33;16.48;;;10.18;;
55633;SDS011;41504;53.162;6.788;2023-12-04T13:17:00;18.05;;;10.10;;
55633;SDS011;41504;53.162;6.788;2023-12-04T13:19:26;16.27;;;9.82;;
55633;SDS011;41504;53.162;6.788;2023-12-04T13:21:52;14.65;;;9.65;;
55633;SDS011;41504;53.162;6.788;2023-12-04T13:24:18;15.65;;;9.20;;
55633;SDS011;41504;53.162;6.788;2023-12-04T13:26:44;16.23;;;10.27;;
55633;SDS011;41504;53.162;6.788;2023-12-04T13:29:10;17.70;;;10.52;;
55633;SDS011;41504;53.162;6.788;2023-12-04T13:31:37;16.58;;;10.95;;
55633;SDS011;41504;53.162;6.788;2023-12-04T13:34:02;16.35;;;11.43;;
55633;SDS011;41504;53.162;6.788;2023-12-04T13:36:31;15.68;;;10.52;;
55633;SDS011;41504;53.162;6.788;2023-12-04T13:39:02;16.52;;;10.13;;
55633;SDS011;41504;53.162;6.788;2023-12-04T13:41:29;14.57;;;10.10;;
55633;SDS011;41504;53.162;6.788;2023-12-04T13:44:14;15.10;;;10.20;;
55633;SDS011;41504;53.162;6.788;2023-12-04T13:46:40;14.45;;;9.05;;
55633;SDS011;41504;53.162;6.788;2023-12-04T13:49:06;14.18;;;9.50;;
55633;SDS011;41504;53.162;6.788;2023-12-04T13:51:32;14.60;;;9.70;;
55633;SDS011;41504;53.162;6.788;2023-12-04T13:53:59;15.02;;;9.55;;
55633;SDS011;41504;53.162;6.788;2023-12-04T13:56:34;14.38;;;9.25;;
55633;SDS011;41504;53.162;6.788;2023-12-04T13:59:11;16.77;;;9.82;;
55633;SDS011;41504;53.162;6.788;2023-12-04T14:04:11;14.48;;;9.00;;
55633;SDS011;41504;53.162;6.788;2023-12-04T14:06:36;15.02;;;9.55;;
55633;SDS011;41504;53.162;6.788;2023-12-04T14:09:02;13.32;;;9.30;;
55633;SDS011;41504;53.162;6.788;2023-12-04T14:11:43;14.68;;;9.50;;
55633;SDS011;41504;53.162;6.788;2023-12-04T14:14:09;14.57;;;9.70;;
55633;SDS011;41504;53.162;6.788;2023-12-04T14:16:35;14.85;;;9.98;;
55633;SDS011;41504;53.162;6.788;2023-12-04T14:19:01;14.23;;;9.85;;
55633;SDS011;41504;53.162;6.788;2023-12-04T14:21:27;14.23;;;9.52;;
55633;SDS011;41504;53.162;6.788;2023-12-04T14:23:53;14.07;;;9.50;;
55633;SDS011;41504;53.162;6.788;2023-12-04T14:26:19;16.08;;;10.27;;
55633;SDS011;41504;53.162;6.788;2023-12-04T14:28:45;13.60;;;9.60;;
55633;SDS011;41504;53.162;6.788;2023-12-04T14:31:10;14.68;;;9.30;;
55633;SDS011;41504;53.162;6.788;2023-12-04T14:33:36;15.05;;;9.50;;
55633;SDS011;41504;53.162;6.788;2023-12-04T14:36:02;15.00;;;9.98;;
55633;SDS011;41504;53.162;6.788;2023-12-04T14:38:28;17.83;;;10.50;;
55633;SDS011;41504;53.162;6.788;2023-12-04T14:40:54;16.05;;;9.68;;
55633;SDS011;41504;53.162;6.788;2023-12-04T14:43:20;16.13;;;10.05;;
55633;SDS011;41504;53.162;6.788;2023-12-04T14:45:46;17.48;;;9.88;;
55633;SDS011;41504;53.162;6.788;2023-12-04T14:48:12;14.60;;;9.05;;
55633;SDS011;41504;53.162;6.788;2023-12-04T14:50:37;13.85;;;8.88;;
55633;SDS011;41504;53.162;6.788;2023-12-04T14:53:04;14.32;;;9.10;;
55633;SDS011;41504;53.162;6.788;2023-12-04T14:55:54;14.65;;;9.38;;
55633;SDS011;41504;53.162;6.788;2023-12-04T14:58:39;14.75;;;9.35;;
55633;SDS011;41504;53.162;6.788;2023-12-04T15:01:11;13.93;;;9.32;;
55633;SDS011;41504;53.162;6.788;2023-12-04T15:03:55;14.55;;;9.55;;
55633;SDS011;41504;53.162;6.788;2023-12-04T15:06:41;14.68;;;9.38;;
55633;SDS011;41504;53.162;6.788;2023-12-04T15:09:15;13.15;;;9.25;;
55633;SDS011;41504;53.162;6.788;2023-12-04T15:11:59;15.60;;;9.60;;